Time,TemperatureF,DewpointF,PressureIn,WindDirection,WindDirectionDegrees,WindSpeedMPH,WindSpeedGustMPH,Humidity,HourlyPrecipIn,Conditions,Clouds,dailyrainin,SoftwareType,DateUTC
2013-01-02 00:15:00,11.9,-2.3,29.83,North,3,0.0,11.0,52,0.00,,---,0.00,VWS V12.07,2013-01-02 05:15:00,
2013-01-02 00:25:00,11.9,-2.3,29.83,NW,322,1.0,11.0,52,0.00,,---,0.00,VWS V12.07,2013-01-02 05:25:00,
2013-01-02 00:31:00,11.9,-2.3,29.83,NNW,344,0.0,2.0,52,0.00,,---,0.00,VWS V12.07,2013-01-02 05:31:00,
2013-01-02 00:45:00,11.9,-1.9,29.83,NW,318,3.0,12.0,53,0.00,,---,0.00,VWS V12.07,2013-01-02 05:45:00,
2013-01-02 00:55:00,11.6,-2.2,29.83,NW,319,9.0,12.0,53,0.00,,---,0.00,VWS V12.07,2013-01-02 05:55:00,
2013-01-02 01:05:00,11.7,-2.1,29.84,North,354,3.0,9.0,53,0.00,,---,0.00,VWS V12.07,2013-01-02 06:05:00,
2013-01-02 01:15:00,11.7,-2.1,29.84,NW,325,1.0,9.0,53,0.00,,---,0.00,VWS V12.07,2013-01-02 06:15:00,
2013-01-02 01:25:00,11.6,-2.2,29.84,NW,310,0.0,9.0,53,0.00,,---,0.00,VWS V12.07,2013-01-02 06:25:00,
2013-01-02 01:35:00,11.4,-2.0,29.84,NW,322,1.0,3.0,54,0.00,,---,0.00,VWS V12.07,2013-01-02 06:35:00,
2013-01-02 01:46:00,11.2,-2.2,29.85,NW,308,2.0,4.0,54,0.00,,---,0.00,VWS V12.07,2013-01-02 06:46:00,
2013-01-02 01:56:00,11.4,-2.4,29.85,NW,308,0.0,4.0,53,0.00,,---,0.00,VWS V12.07,2013-01-02 06:56:00,
2013-01-02 02:06:00,11.4,-2.4,29.86,NW,308,1.0,3.0,53,0.00,,---,0.00,VWS V12.07,2013-01-02 07:06:00,
2013-01-02 02:16:00,11.2,-2.2,29.86,WNW,284,2.0,5.0,54,0.00,,---,0.00,VWS V12.07,2013-01-02 07:16:00,
2013-01-02 02:26:00,11.2,-1.0,29.86,WNW,295,3.0,8.0,57,0.00,,---,0.00,VWS V12.07,2013-01-02 07:26:00,
2013-01-02 02:36:00,11.1,-0.4,29.86,WNW,300,5.0,10.0,59,0.00,,---,0.00,VWS V12.07,2013-01-02 07:36:00,
2013-01-02 02:46:00,11.2,0.0,29.85,WNW,294,4.0,10.0,60,0.00,,---,0.00,VWS V12.07,2013-01-02 07:46:00,
2013-01-02 02:56:00,11.6,0.4,29.85,West,277,5.0,11.0,60,0.00,,---,0.00,VWS V12.07,2013-01-02 07:56:00,
2013-01-02 03:06:00,11.2,0.0,29.84,WSW,254,4.0,10.0,60,0.00,,---,0.00,VWS V12.07,2013-01-02 08:06:00,
2013-01-02 03:16:00,10.7,-0.4,29.85,West,267,6.0,10.0,60,0.00,,---,0.00,VWS V12.07,2013-01-02 08:16:00,
2013-01-02 03:26:00,10.4,-0.7,29.85,WSW,254,3.0,10.0,60,0.00,,---,0.00,VWS V12.07,2013-01-02 08:26:00,
2013-01-02 03:36:00,10.0,-0.8,29.84,West,265,2.0,6.0,61,0.00,,---,0.00,VWS V12.07,2013-01-02 08:36:00,
2013-01-02 03:46:00,9.9,-0.2,29.84,West,267,4.0,7.0,63,0.00,,---,0.00,VWS V12.07,2013-01-02 08:46:00,
2013-01-02 03:56:00,9.5,-0.2,29.84,WSW,254,4.0,7.0,64,0.00,,---,0.00,VWS V12.07,2013-01-02 08:56:00,
2013-01-02 04:06:00,9.3,0.3,29.84,West,272,4.0,6.0,66,0.00,,---,0.00,VWS V12.07,2013-01-02 09:06:00,
2013-01-02 04:16:00,9.3,-0.1,29.84,West,276,2.0,6.0,65,0.00,,---,0.00,VWS V12.07,2013-01-02 09:16:00,
2013-01-02 04:26:00,9.5,0.1,29.84,West,273,4.0,6.0,65,0.00,,---,0.00,VWS V12.07,2013-01-02 09:26:00,
2013-01-02 04:36:00,9.3,0.3,29.83,West,263,4.0,5.0,66,0.00,,---,0.00,VWS V12.07,2013-01-02 09:36:00,
2013-01-02 04:46:00,9.0,0.3,29.84,WSW,254,3.0,7.0,67,0.00,,---,0.00,VWS V12.07,2013-01-02 09:46:00,
2013-01-02 04:56:00,8.8,0.7,29.84,WSW,254,6.0,7.0,69,0.00,,---,0.00,VWS V12.07,2013-01-02 09:56:00,
2013-01-02 05:06:00,9.2,0.8,29.84,WSW,249,4.0,7.0,68,0.00,,---,0.00,VWS V12.07,2013-01-02 10:06:00,
2013-01-02 05:16:00,9.5,1.1,29.84,West,262,6.0,7.0,68,0.00,,---,0.00,VWS V12.07,2013-01-02 10:16:00,
2013-01-02 05:26:00,9.7,1.0,29.84,WSW,241,8.0,10.0,67,0.00,,---,0.00,VWS V12.07,2013-01-02 10:26:00,
2013-01-02 05:45:00,9.5,1.1,29.84,WSW,247,6.0,9.0,68,0.00,,---,0.00,VWS V12.07,2013-01-02 10:45:00,
2013-01-02 05:55:00,9.9,1.1,29.84,WSW,246,6.0,12.0,67,0.00,,---,0.00,VWS V12.07,2013-01-02 10:55:00,
2013-01-02 06:05:00,9.7,1.0,29.83,WSW,237,8.0,10.0,67,0.00,,---,0.00,VWS V12.07,2013-01-02 11:05:00,
2013-01-02 06:15:00,9.0,0.9,29.84,WSW,239,10.0,12.0,69,0.00,,---,0.00,VWS V12.07,2013-01-02 11:15:00,
2013-01-02 06:25:00,9.2,1.1,29.84,WSW,253,10.0,14.0,69,0.00,,---,0.00,VWS V12.07,2013-01-02 11:25:00,
2013-01-02 06:36:00,9.5,1.1,29.84,WSW,240,12.0,14.0,68,0.00,,---,0.00,VWS V12.07,2013-01-02 11:36:00,
2013-01-02 06:46:00,9.5,1.4,29.84,WSW,238,11.0,17.0,69,0.00,,---,0.00,VWS V12.07,2013-01-02 11:46:00,
2013-01-02 06:56:00,9.9,1.5,29.84,WSW,237,9.0,17.0,68,0.00,,---,0.00,VWS V12.07,2013-01-02 11:56:00,
2013-01-02 07:06:00,10.0,1.6,29.84,SW,236,11.0,17.0,68,0.00,,---,0.00,VWS V12.07,2013-01-02 12:06:00,
2013-01-02 07:15:00,10.4,2.0,29.84,SW,231,9.0,17.0,68,0.00,,---,0.00,VWS V12.07,2013-01-02 12:15:00,
2013-01-02 07:25:00,10.5,1.7,29.84,SW,218,9.0,17.0,67,0.00,,---,0.00,VWS V12.07,2013-01-02 12:25:00,
2013-01-02 07:35:00,10.7,1.9,29.83,SW,229,8.0,12.0,67,0.00,,---,0.00,VWS V12.07,2013-01-02 12:35:00,
2013-01-02 07:45:00,10.9,2.4,29.83,SW,231,5.0,12.0,68,0.00,,---,0.00,VWS V12.07,2013-01-02 12:45:00,
2013-01-02 07:51:00,10.9,2.4,29.83,SW,220,10.0,13.0,68,0.00,,---,0.00,VWS V12.07,2013-01-02 12:51:00,
2013-01-02 08:06:00,11.2,2.7,29.83,SW,235,8.0,14.0,68,0.00,,---,0.00,VWS V12.07,2013-01-02 13:06:00,
2013-01-02 08:17:00,11.6,3.1,29.83,SSW,202,9.0,15.0,68,0.00,,---,0.00,VWS V12.07,2013-01-02 13:17:00,
2013-01-02 08:25:00,11.7,3.2,29.83,SW,229,12.0,15.0,68,0.00,,---,0.00,VWS V12.07,2013-01-02 13:25:00,
2013-01-02 08:35:00,12.1,3.6,29.83,SW,236,7.0,12.0,68,0.00,,---,0.00,VWS V12.07,2013-01-02 13:35:00,
2013-01-02 08:45:00,12.4,4.2,29.83,SW,220,4.0,12.0,69,0.00,,---,0.00,VWS V12.07,2013-01-02 13:45:00,
2013-01-02 08:55:00,12.9,5.0,29.83,WSW,241,5.0,12.0,70,0.00,,---,0.00,VWS V12.07,2013-01-02 13:55:00,
2013-01-02 09:05:00,13.8,5.5,29.84,SW,229,3.0,7.0,69,0.00,,---,0.00,VWS V12.07,2013-01-02 14:05:00,
2013-01-02 09:15:00,14.4,6.4,29.85,SW,225,5.0,10.0,70,0.00,,---,0.00,VWS V12.07,2013-01-02 14:15:00,
2013-01-02 09:25:00,14.8,6.8,29.85,WSW,239,7.0,10.0,70,0.00,,---,0.00,VWS V12.07,2013-01-02 14:25:00,
2013-01-02 09:36:00,15.7,8.0,29.85,West,266,3.0,12.0,71,0.00,,---,0.00,VWS V12.07,2013-01-02 14:36:00,
2013-01-02 09:46:00,16.9,8.8,29.86,West,280,9.0,16.0,70,0.00,,---,0.00,VWS V12.07,2013-01-02 14:46:00,
2013-01-02 09:56:00,17.7,8.9,29.86,West,276,6.0,16.0,68,0.00,,---,0.00,VWS V12.07,2013-01-02 14:56:00,
2013-01-02 10:06:00,18.0,9.2,29.85,West,268,10.0,15.0,68,0.00,,---,0.00,VWS V12.07,2013-01-02 15:06:00,
2013-01-02 10:16:00,18.3,9.2,29.85,West,266,7.0,15.0,67,0.00,,---,0.00,VWS V12.07,2013-01-02 15:16:00,
2013-01-02 10:26:00,18.6,9.5,29.85,WSW,257,5.0,15.0,67,0.00,,---,0.00,VWS V12.07,2013-01-02 15:26:00,
2013-01-02 10:36:00,18.9,9.4,29.85,West,264,5.0,11.0,66,0.00,,---,0.00,VWS V12.07,2013-01-02 15:36:00,
2013-01-02 10:46:00,19.2,9.7,29.85,West,260,13.0,15.0,66,0.00,,---,0.00,VWS V12.07,2013-01-02 15:46:00,
2013-01-02 10:56:00,19.4,9.9,29.85,WSW,237,8.0,15.0,66,0.00,,---,0.00,VWS V12.07,2013-01-02 15:56:00,
2013-01-02 11:06:00,19.7,10.5,29.84,WSW,254,10.0,13.0,67,0.00,,---,0.00,VWS V12.07,2013-01-02 16:06:00,
2013-01-02 11:16:00,20.0,10.1,29.84,WNW,293,7.0,13.0,65,0.00,,---,0.00,VWS V12.07,2013-01-02 16:16:00,
2013-01-02 11:26:00,20.0,9.8,29.84,West,262,13.0,15.0,64,0.00,,---,0.00,VWS V12.07,2013-01-02 16:26:00,
2013-01-02 11:36:00,20.3,10.1,29.84,WNW,286,7.0,16.0,64,0.00,,---,0.00,VWS V12.07,2013-01-02 16:36:00,
2013-01-02 11:46:00,20.5,10.3,29.84,West,279,5.0,16.0,64,0.00,,---,0.00,VWS V12.07,2013-01-02 16:46:00,
2013-01-02 11:56:00,21.0,10.4,29.84,WNW,289,8.0,18.0,63,0.00,,---,0.00,VWS V12.07,2013-01-02 16:56:00,
2013-01-02 12:06:00,21.1,10.5,29.84,North,351,3.0,17.0,63,0.00,,---,0.00,VWS V12.07,2013-01-02 17:06:00,
2013-01-02 12:16:00,21.1,10.5,29.83,NW,318,5.0,17.0,63,0.00,,---,0.00,VWS V12.07,2013-01-02 17:16:00,
2013-01-02 12:26:00,21.1,10.5,29.83,North,358,5.0,17.0,63,0.00,,---,0.00,VWS V12.07,2013-01-02 17:26:00,
2013-01-02 12:35:00,21.1,10.8,29.84,WNW,285,5.0,13.0,64,0.00,,---,0.00,VWS V12.07,2013-01-02 17:35:00,
2013-01-02 12:45:00,21.0,11.4,29.84,West,278,5.0,15.0,66,0.00,,---,0.00,VWS V12.07,2013-01-02 17:45:00,
2013-01-02 12:55:00,20.6,12.7,29.84,WNW,293,3.0,15.0,71,0.00,,---,0.00,VWS V12.07,2013-01-02 17:55:00,
2013-01-02 13:05:00,21.1,11.2,29.84,WNW,288,5.0,10.0,65,0.00,,---,0.00,VWS V12.07,2013-01-02 18:05:00,
2013-01-02 13:15:00,21.4,9.7,29.84,WNW,294,10.0,14.0,60,0.00,,---,0.00,VWS V12.07,2013-01-02 18:15:00,
2013-01-02 13:25:00,21.3,9.2,29.84,North,357,11.0,16.0,59,0.00,,---,0.00,VWS V12.07,2013-01-02 18:25:00,
2013-01-02 13:35:00,21.0,8.6,29.85,NNE,21,5.0,23.0,58,0.00,,---,0.00,VWS V12.07,2013-01-02 18:35:00,
2013-01-02 13:45:00,21.0,8.6,29.86,NW,322,16.0,23.0,58,0.00,,---,0.00,VWS V12.07,2013-01-02 18:45:00,
2013-01-02 13:55:00,20.8,8.0,29.86,NW,322,6.0,23.0,57,0.00,,---,0.00,VWS V12.07,2013-01-02 18:55:00,
2013-01-02 14:05:00,20.8,7.2,29.86,WNW,293,4.0,20.0,55,0.00,,---,0.00,VWS V12.07,2013-01-02 19:05:00,
2013-01-02 14:15:00,20.5,6.5,29.86,North,359,19.0,27.0,54,0.00,,---,0.00,VWS V12.07,2013-01-02 19:15:00,
2013-01-02 14:25:00,19.9,5.9,29.86,NE,47,12.0,32.0,54,0.00,,---,0.00,VWS V12.07,2013-01-02 19:25:00,
2013-01-02 14:35:00,19.7,5.3,29.88,West,269,5.0,21.0,53,0.00,,---,0.00,VWS V12.07,2013-01-02 19:35:00,
2013-01-02 14:45:00,19.5,4.8,29.88,NNW,339,12.0,25.0,52,0.00,,---,0.00,VWS V12.07,2013-01-02 19:45:00,
2013-01-02 14:55:00,19.5,4.3,29.88,NNW,345,17.0,25.0,51,0.00,,---,0.00,VWS V12.07,2013-01-02 19:55:00,
2013-01-02 15:05:00,19.5,4.8,29.88,NW,307,8.0,23.0,52,0.00,,---,0.00,VWS V12.07,2013-01-02 20:05:00,
2013-01-02 15:15:00,19.9,4.7,29.90,North,353,13.0,23.0,51,0.00,,---,0.00,VWS V12.07,2013-01-02 20:15:00,
2013-01-02 15:25:00,19.7,4.5,29.90,NW,306,16.0,23.0,51,0.00,,---,0.00,VWS V12.07,2013-01-02 20:25:00,
2013-01-02 15:35:00,19.4,4.7,29.91,WNW,294,4.0,15.0,52,0.00,,---,0.00,VWS V12.07,2013-01-02 20:35:00,
2013-01-02 15:45:00,19.4,5.1,29.92,NNW,335,3.0,17.0,53,0.00,,---,0.00,VWS V12.07,2013-01-02 20:45:00,
2013-01-02 15:55:00,18.8,5.7,29.92,NNE,19,2.0,17.0,56,0.00,,---,0.00,VWS V12.07,2013-01-02 20:55:00,
2013-01-02 16:05:00,18.8,4.9,29.93,North,358,6.0,7.0,54,0.00,,---,0.00,VWS V12.07,2013-01-02 21:05:00,
2013-01-02 16:15:00,18.4,4.9,29.94,North,350,1.0,15.0,55,0.00,,---,0.00,VWS V12.07,2013-01-02 21:15:00,
2013-01-02 16:25:00,18.1,4.7,29.94,NNW,335,3.0,18.0,55,0.00,,---,0.00,VWS V12.07,2013-01-02 21:25:00,
2013-01-02 16:35:00,17.8,4.4,29.94,NW,317,16.0,17.0,55,0.00,,---,0.00,VWS V12.07,2013-01-02 21:35:00,
2013-01-02 16:45:00,17.7,4.3,29.95,NNE,25,15.0,18.0,55,0.00,,---,0.00,VWS V12.07,2013-01-02 21:45:00,
2013-01-02 16:55:00,17.3,4.3,29.95,North,5,6.0,18.0,56,0.00,,---,0.00,VWS V12.07,2013-01-02 21:55:00,
2013-01-02 17:05:00,17.0,4.0,29.95,North,10,10.0,21.0,56,0.00,,---,0.00,VWS V12.07,2013-01-02 22:05:00,
2013-01-02 17:15:00,16.9,3.9,29.96,North,354,4.0,21.0,56,0.00,,---,0.00,VWS V12.07,2013-01-02 22:15:00,
2013-01-02 17:25:00,16.5,3.5,29.96,NNW,337,2.0,21.0,56,0.00,,---,0.00,VWS V12.07,2013-01-02 22:25:00,
2013-01-02 17:36:00,15.2,4.9,29.96,NW,326,7.0,14.0,63,0.00,,---,0.00,VWS V12.07,2013-01-02 22:36:00,
2013-01-02 17:46:00,14.1,4.5,29.97,NNE,24,5.0,18.0,65,0.00,,---,0.00,VWS V12.07,2013-01-02 22:46:00,
2013-01-02 17:56:00,12.8,4.2,29.97,NNE,25,11.0,18.0,68,0.00,,---,0.00,VWS V12.07,2013-01-02 22:56:00,
2013-01-02 18:06:00,12.1,4.2,29.98,NNE,33,16.0,16.0,70,0.00,,---,0.00,VWS V12.07,2013-01-02 23:06:00,
2013-01-02 18:16:00,11.6,3.7,29.98,NNE,28,12.0,16.0,70,0.00,,---,0.00,VWS V12.07,2013-01-02 23:16:00,
2013-01-02 18:26:00,11.1,3.5,29.98,NE,37,11.0,16.0,71,0.00,,---,0.00,VWS V12.07,2013-01-02 23:26:00,
2013-01-02 18:37:00,10.9,3.0,29.99,NNE,16,10.0,19.0,70,0.00,,---,0.00,VWS V12.07,2013-01-02 23:37:00,
2013-01-02 18:45:00,10.5,2.7,29.99,North,5,13.0,19.0,70,0.00,,---,0.00,VWS V12.07,2013-01-02 23:45:00,
2013-01-02 18:55:00,10.2,2.1,29.99,NE,41,13.0,21.0,69,0.00,,---,0.00,VWS V12.07,2013-01-02 23:55:00,
2013-01-02 19:05:00,9.9,1.8,29.99,NNE,18,11.0,21.0,69,0.00,,---,0.00,VWS V12.07,2013-01-03 00:05:00,
2013-01-02 19:15:00,9.5,1.7,30.00,NNE,22,13.0,21.0,70,0.00,,---,0.00,VWS V12.07,2013-01-03 00:15:00,
2013-01-02 19:25:00,8.6,0.8,30.00,NNE,18,10.0,21.0,70,0.00,,---,0.00,VWS V12.07,2013-01-03 00:25:00,
2013-01-02 19:36:00,8.1,0.7,30.01,North,4,4.0,12.0,71,0.00,,---,0.00,VWS V12.07,2013-01-03 00:36:00,
2013-01-02 19:45:00,7.7,0.3,30.01,NNE,21,6.0,12.0,71,0.00,,---,0.00,VWS V12.07,2013-01-03 00:45:00,
2013-01-02 19:55:00,7.6,-0.1,30.01,North,10,13.0,16.0,70,0.00,,---,0.00,VWS V12.07,2013-01-03 00:55:00,
2013-01-02 20:05:00,7.2,-0.5,30.02,NNE,27,13.0,21.0,70,0.00,,---,0.00,VWS V12.07,2013-01-03 01:05:00,
2013-01-02 20:16:00,6.7,-1.0,30.02,NNE,22,10.0,22.0,70,0.00,,---,0.00,VWS V12.07,2013-01-03 01:16:00,
2013-01-02 20:26:00,6.3,-1.7,30.02,NNE,20,22.0,24.0,69,0.00,,---,0.00,VWS V12.07,2013-01-03 01:26:00,
2013-01-02 20:36:00,6.0,-2.6,30.02,NNE,20,18.0,24.0,67,0.00,,---,0.00,VWS V12.07,2013-01-03 01:36:00,
2013-01-02 20:46:00,6.0,-3.2,30.03,NNE,31,15.0,26.0,65,0.00,,---,0.00,VWS V12.07,2013-01-03 01:46:00,
2013-01-02 20:56:00,6.0,-3.9,30.03,North,9,13.0,26.0,63,0.00,,---,0.00,VWS V12.07,2013-01-03 01:56:00,
2013-01-02 21:05:00,5.8,-4.4,30.04,NNE,14,15.0,22.0,62,0.00,,---,0.00,VWS V12.07,2013-01-03 02:05:00,
2013-01-02 21:16:00,5.4,-4.8,30.04,North,4,11.0,27.0,62,0.00,,---,0.00,VWS V12.07,2013-01-03 02:16:00,
2013-01-02 21:24:00,4.7,-4.8,30.04,NE,38,17.0,27.0,64,0.00,,---,0.00,VWS V12.07,2013-01-03 02:24:00,
2013-01-02 21:36:00,3.4,-6.0,30.06,NNE,14,9.0,22.0,64,0.00,,---,0.00,VWS V12.07,2013-01-03 02:36:00,
2013-01-02 21:57:00,2.2,-6.8,30.07,NNE,32,11.0,22.0,65,0.00,,---,0.00,VWS V12.07,2013-01-03 02:57:00,
2013-01-02 22:07:00,1.7,-7.3,30.07,NE,37,12.0,20.0,65,0.00,,---,0.00,VWS V12.07,2013-01-03 03:07:00,
2013-01-02 22:18:00,1.3,-7.7,30.07,NNE,26,7.0,22.0,65,0.00,,---,0.00,VWS V12.07,2013-01-03 03:18:00,
2013-01-02 22:57:00,0.1,-8.6,30.08,NNE,15,11.0,16.0,66,0.00,,---,0.00,VWS V12.07,2013-01-03 03:57:00,
2013-01-02 23:07:00,-0.2,-8.5,30.08,NNE,18,13.0,15.0,67,0.00,,---,0.00,VWS V12.07,2013-01-03 04:07:00,
2013-01-02 23:18:00,-0.4,-8.7,30.08,NE,37,12.0,15.0,67,0.00,,---,0.00,VWS V12.07,2013-01-03 04:18:00,
2013-01-02 23:43:00,-0.8,-8.8,30.08,NNE,13,8.0,14.0,68,0.00,,---,0.00,VWS V12.07,2013-01-03 04:43:00,
2013-01-02 23:58:00,-0.8,-8.5,30.08,NNE,33,16.0,18.0,69,0.00,,---,0.00,VWS V12.07,2013-01-03 04:58:00,